Time;durP1;ratioP1;P1;durP2;ratioP2;P2;SDS_P1;SDS_P2;PMS_P1;PMS_P2;Temp;Humidity;BMP_temperature;BMP_pressure;BME280_temperature;BME280_humidity;BME280_pressure;Samples;Min_cycle;Max_cycle;Signal;HPM_P1;HPM_P2
2023/12/06 00:02:13;;;;;;;15.50;9.40;;;;;;;-1.27;72.46;100248.67;79369;1301;3012017;-62
2023/12/06 00:04:41;;;;;;;14.70;9.20;;;;;;;-1.40;72.27;100246.62;78248;1298;3025833;-62
2023/12/06 00:07:08;;;;;;;17.70;8.10;;;;;;;-1.41;72.35;100239.75;79390;1296;3019143;-61
2023/12/06 00:09:34;;;;;;;20.00;10.10;;;;;;;-1.35;72.38;100242.66;79477;1299;3011559;-60
2023/12/06 00:12:03;;;;;;;16.20;9.10;;;;;;;-1.34;72.73;100242.32;78254;1298;3026584;-60
2023/12/06 00:14:30;;;;;;;16.70;9.20;;;;;;;-1.37;72.51;100238.71;79547;1298;3013474;-62
2023/12/06 00:16:57;;;;;;;19.20;9.30;;;;;;;-1.40;72.05;100235.09;79291;1295;3011665;-62
2023/12/06 00:19:25;;;;;;;15.50;9.80;;;;;;;-1.31;71.96;100236.48;77994;1301;3049261;-60
2023/12/06 00:21:52;;;;;;;19.50;9.60;;;;;;;-1.39;72.11;100232.36;79297;1295;3018744;-59
2023/12/06 00:24:19;;;;;;;15.30;8.80;;;;;;;-1.37;72.26;100227.54;79394;1298;3011754;-62
2023/12/06 00:26:48;;;;;;;21.90;8.40;;;;;;;-1.32;71.84;100231.66;78265;1298;3028594;-60
2023/12/06 00:29:15;;;;;;;20.80;9.40;;;;;;;-1.31;71.85;100228.75;79416;1294;3014837;-61
2023/12/06 00:31:42;;;;;;;18.30;7.70;;;;;;;-1.31;71.52;100231.67;79357;1294;3011449;-61
2023/12/06 00:34:10;;;;;;;13.60;8.00;;;;;;;-1.36;71.60;100231.49;78200;1298;3048679;-60
2023/12/06 00:36:36;;;;;;;15.50;7.90;;;;;;;-1.40;71.36;100230.12;79475;1295;3013329;-58
2023/12/06 00:39:03;;;;;;;14.40;7.10;;;;;;;-1.36;71.36;100231.49;79434;1295;3011839;-61
2023/12/06 00:41:31;;;;;;;17.20;7.90;;;;;;;-1.37;71.21;100229.27;78260;1298;3027010;-61
2023/12/06 00:44:01;;;;;;;14.00;8.30;;;;;;;-1.42;71.31;100237.17;79418;1298;3013717;-61
2023/12/06 00:46:31;;;;;;;14.40;7.40;;;;;;;-1.39;71.44;100242.83;78974;1295;3011826;-60
2023/12/06 00:49:03;;;;;;;15.70;9.00;;;;;;;-1.38;71.18;100245.76;79460;1299;3014980;-61
2023/12/06 00:51:31;;;;;;;19.70;8.70;;;;;;;-1.38;71.04;100240.95;78321;1295;3053551;-59
2023/12/06 00:53:58;;;;;;;13.90;7.50;;;;;;;-1.43;70.89;100241.98;79535;1295;3013672;-59
2023/12/06 00:56:25;;;;;;;12.60;7.20;;;;;;;-1.44;71.05;100238.02;79421;1298;3011946;-60
2023/12/06 00:58:53;;;;;;;15.90;7.50;;;;;;;-1.46;70.84;100237.67;78214;1296;3068317;-58
2023/12/06 01:01:20;;;;;;;14.60;7.80;;;;;;;-1.47;70.79;100238.36;79487;1298;3013338;-59
2023/12/06 01:03:47;;;;;;;13.40;6.80;;;;;;;-1.50;70.76;100236.65;79444;1298;3011582;-62
2023/12/06 01:06:15;;;;;;;15.30;7.10;;;;;;;-1.56;70.82;100230.96;78050;1296;3025427;-59
2023/12/06 01:08:42;;;;;;;13.10;6.60;;;;;;;-1.50;70.99;100231.66;79418;1300;3013078;-60
2023/12/06 01:11:08;;;;;;;15.60;8.00;;;;;;;-1.48;70.88;100230.13;79257;1300;3013397;-60
2023/12/06 01:13:37;;;;;;;18.60;7.90;;;;;;;-1.45;70.78;100226.86;78118;1295;3028319;-61
2023/12/06 01:16:04;;;;;;;13.10;7.20;;;;;;;-1.46;70.70;100228.06;79325;1300;3013292;-61
2023/12/06 01:18:31;;;;;;;15.50;7.50;;;;;;;-1.50;70.76;100225.98;79260;1295;3011641;-59
2023/12/06 01:20:59;;;;;;;18.20;8.60;;;;;;;-1.51;70.72;100224.61;78074;1299;3053395;-60
2023/12/06 01:23:26;;;;;;;13.00;8.20;;;;;;;-1.56;70.92;100225.64;79433;1300;3020607;-61
2023/12/06 01:25:53;;;;;;;14.30;7.70;;;;;;;-1.59;70.71;100217.90;79337;1300;3012522;-61
2023/12/06 01:28:21;;;;;;;13.40;8.20;;;;;;;-1.64;70.73;100208.63;78075;1296;3027927;-60
2023/12/06 01:30:48;;;;;;;14.00;8.80;;;;;;;-1.65;70.86;100194.36;79405;1295;3013862;-60
2023/12/06 01:33:15;;;;;;;14.40;7.70;;;;;;;-1.71;70.83;100182.84;79286;1295;3011795;-60
2023/12/06 01:35:43;;;;;;;14.00;8.20;;;;;;;-1.77;70.79;100169.78;78071;1299;3053624;-58
2023/12/06 01:38:10;;;;;;;13.60;7.00;;;;;;;-1.82;71.08;100164.64;79260;1301;3013594;-60
2023/12/06 01:40:38;;;;;;;12.20;7.20;;;;;;;-1.88;71.04;100161.02;79317;1301;3013124;-58
2023/12/06 01:43:07;;;;;;;11.50;7.00;;;;;;;-1.92;70.86;100158.27;78126;1299;3068712;-60
2023/12/06 01:45:34;;;;;;;11.70;7.70;;;;;;;-1.94;70.89;100146.76;79273;1295;3013546;-60
2023/12/06 01:48:02;;;;;;;16.50;9.20;;;;;;;-1.92;70.92;100139.02;79315;1295;3013633;-59
2023/12/06 01:50:30;;;;;;;14.50;8.60;;;;;;;-1.90;71.26;100134.23;78027;1300;3052306;-60
2023/12/06 01:52:58;;;;;;;18.00;8.70;;;;;;;-1.88;71.76;100134.56;79259;1301;3013695;-61
2023/12/06 01:55:25;;;;;;;15.50;8.20;;;;;;;-1.81;71.96;100139.21;79262;1300;3011673;-60
2023/12/06 01:57:53;;;;;;;15.60;7.10;;;;;;;-1.84;72.18;100130.64;78128;1295;3068931;-59
2023/12/06 02:00:20;;;;;;;18.10;6.20;;;;;;;-1.97;71.85;100121.16;79430;1295;3013468;-60
2023/12/06 02:02:47;;;;;;;12.80;6.20;;;;;;;-1.99;71.82;100120.14;79494;1300;3013106;-60
2023/12/06 02:05:15;;;;;;;15.20;6.20;;;;;;;-1.96;71.38;100123.91;78172;1295;3028568;-59
2023/12/06 02:07:42;;;;;;;13.20;7.20;;;;;;;-1.93;71.45;100120.66;79314;1301;3013657;-59
2023/12/06 02:10:09;;;;;;;11.50;6.00;;;;;;;-1.95;71.68;100117.39;79250;1300;3011907;-61
2023/12/06 02:12:37;;;;;;;10.30;6.20;;;;;;;-1.95;71.66;100117.89;78092;1300;3069540;-60
2023/12/06 02:15:05;;;;;;;12.80;6.80;;;;;;;-1.92;71.24;100112.42;79262;1298;3013117;-59
2023/12/06 02:17:32;;;;;;;13.00;7.20;;;;;;;-1.92;71.16;100111.39;79246;1295;3013100;-59
2023/12/06 02:20:01;;;;;;;10.60;6.20;;;;;;;-1.94;71.51;100112.41;78083;1295;3053942;-59
2023/12/06 02:22:28;;;;;;;13.40;6.60;;;;;;;-1.99;71.56;100118.59;79333;1301;3013895;-60
2023/12/06 02:24:57;;;;;;;11.30;6.90;;;;;;;-1.93;71.40;100117.90;79314;1300;3011617;-60
2023/12/06 02:27:25;;;;;;;12.30;7.20;;;;;;;-1.85;71.12;100119.98;78026;1300;3067999;-60
2023/12/06 02:29:52;;;;;;;12.90;6.70;;;;;;;-1.89;71.28;100113.79;79244;1295;3013689;-59
2023/12/06 02:32:19;;;;;;;12.50;7.00;;;;;;;-1.92;71.54;100105.55;79319;1295;3011837;-60
2023/12/06 02:34:47;;;;;;;11.70;7.70;;;;;;;-1.89;71.50;100108.46;78007;1295;3052441;-59
2023/12/06 02:37:13;;;;;;;11.10;6.90;;;;;;;-1.88;71.51;100100.90;79317;1301;3013562;-62
2023/12/06 02:39:42;;;;;;;13.90;7.20;;;;;;;-1.95;71.24;100095.23;79288;1298;3011695;-62
2023/12/06 02:42:10;;;;;;;13.70;7.70;;;;;;;-1.95;70.75;100093.35;78096;1296;3068676;-60
2023/12/06 02:44:37;;;;;;;12.10;6.80;;;;;;;-2.07;71.02;100086.99;79235;1299;3018610;-59
2023/12/06 02:47:04;;;;;;;11.50;7.10;;;;;;;-2.04;70.82;100078.23;79235;1295;3013404;-60
2023/12/06 02:49:32;;;;;;;10.60;6.50;;;;;;;-2.01;70.67;100071.36;78241;1295;3053082;-60
2023/12/06 02:52:00;;;;;;;12.00;6.90;;;;;;;-1.93;70.64;100065.20;79507;1295;3018745;-60
2023/12/06 02:54:27;;;;;;;14.80;6.50;;;;;;;-2.02;70.91;100061.92;79567;1298;3011592;-61
2023/12/06 02:56:55;;;;;;;12.20;6.40;;;;;;;-2.12;71.15;100058.66;78256;1296;3069486;-60
2023/12/06 02:59:22;;;;;;;11.90;6.70;;;;;;;-2.11;70.96;100051.63;79459;1295;3013692;-61
2023/12/06 03:01:49;;;;;;;11.90;6.50;;;;;;;-2.14;70.85;100053.00;79446;1294;3011917;-59
2023/12/06 03:04:17;;;;;;;8.00;5.70;;;;;;;-2.15;70.90;100052.99;78257;1298;3028609;-59
2023/12/06 03:06:44;;;;;;;10.90;6.20;;;;;;;-2.18;70.88;100061.58;79433;1298;3012875;-61
2023/12/06 03:09:11;;;;;;;9.70;6.10;;;;;;;-2.12;70.95;100063.64;79465;1298;3013217;-62
2023/12/06 03:11:39;;;;;;;10.20;6.10;;;;;;;-2.12;70.77;100060.72;78199;1298;3027070;-61
2023/12/06 03:14:06;;;;;;;12.00;6.00;;;;;;;-2.03;70.54;100057.46;79425;1295;3012850;-59
2023/12/06 03:16:33;;;;;;;14.20;6.00;;;;;;;-2.12;70.33;100055.57;79303;1295;3012115;-59
2023/12/06 03:19:02;;;;;;;12.50;6.10;;;;;;;-2.18;70.60;100054.70;78177;1295;3053144;-60
2023/12/06 03:21:29;;;;;;;12.00;5.80;;;;;;;-2.20;70.51;100058.65;79290;1298;3013437;-60
2023/12/06 03:23:56;;;;;;;13.60;6.20;;;;;;;-2.20;70.68;100055.73;79244;1298;3013010;-64
2023/12/06 03:26:24;;;;;;;17.40;6.00;;;;;;;-2.20;70.94;100054.70;78096;1295;3069600;-60
2023/12/06 03:28:51;;;;;;;10.50;5.80;;;;;;;-2.20;70.54;100055.22;79432;1295;3013169;-60
2023/12/06 03:31:17;;;;;;;11.90;6.20;;;;;;;-2.24;70.46;100052.98;79249;1300;3013431;-61
2023/12/06 03:33:45;;;;;;;10.60;5.40;;;;;;;-2.29;70.46;100050.23;77986;1300;3028579;-61
2023/12/06 03:36:15;;;;;;;13.10;6.00;;;;;;;-2.26;70.39;100047.84;79537;1298;3012834;-58
2023/12/06 03:38:44;;;;;;;14.30;5.20;;;;;;;-2.37;70.83;100044.40;78908;1298;3011765;-60
2023/12/06 03:41:11;;;;;;;13.90;6.20;;;;;;;-2.35;70.68;100048.16;79332;1298;3013881;-61
2023/12/06 03:43:38;;;;;;;10.20;5.30;;;;;;;-2.33;70.86;100051.42;79294;1295;3011702;-60
2023/12/06 03:46:08;;;;;;;12.90;6.00;;;;;;;-2.31;70.99;100055.21;78203;1295;3056161;-61
2023/12/06 03:48:35;;;;;;;11.50;5.70;;;;;;;-2.32;70.63;100058.80;79401;1294;3013576;-60
2023/12/06 03:51:02;;;;;;;12.00;5.20;;;;;;;-2.40;70.61;100058.98;79504;1296;3011889;-59
